Latest Weather Observations for Avalon

IDV60901

Issued at 8:21 am EST Saturday 2 July 2016 (issued every 10 minutes, with the page automatically refreshed every 10 minutes)

About weather observations | Map of Melbourne area stations | Latest observations for Melbourne area | Other Formats
Station Details ID: 087113 Name: AVALON AIRPORT Lat: -38.03 Lon: 144.48 Height: 10.6 m
Data from the previous 72 hours. | See also: Recent months at Avalon
Date/Time
EST
Temp
°C
App
Temp
°C
Dew
Point
°C
Rel
Hum
%
Delta-T
°C
Wind Press
QNH
hPa
Press
MSL
hPa
Rain since
9am
mm
Dir  Spd
km/h
Gust
km/h
Spd
kts
Gust
kts
02/08:00am 9.4 6.8 7.7 89 0.8 NNW 11 13 6 7 1024.3 1024.3 0.2
02/07:30am 10.5 7.8 8.9 90 0.8 WNW 13 17 7 9 1024.1 1024.1 0.2
02/07:00am 9.7 6.8 8.3 91 0.7 NW 13 15 7 8 1023.7 1023.7 0.2
02/06:30am 10.3 6.8 8.6 89 0.8 WNW 17 20 9 11 1023.4 1023.4 0.2
02/06:00am 11.0 7.2 9.1 88 0.9 WNW 19 26 10 14 1023.2 1023.2 0.2
02/05:30am 11.4 7.0 9.1 86 1.1 WNW 22 28 12 15 1022.9 1022.9 0.2
02/05:00am 11.8 7.5 9.5 86 1.2 NW 22 32 12 17 1022.9 1022.9 0.2
02/04:30am 11.4 8.1 9.5 88 1.0 NW 17 22 9 12 1022.7 1022.7 0.2
02/04:00am 10.9 8.3 9.3 90 0.8 NW 13 17 7 9 1022.7 1022.7 0.2
02/03:30am 11.3 7.4 9.4 88 1.0 WNW 20 26 11 14 1022.5 1022.5 0.2
02/03:00am 11.5 8.0 10.2 92 0.7 NW 19 26 10 14 1022.5 1022.5 0.2
02/02:30am 10.6 8.7 10.4 99 0.1 NNW 11 13 6 7 1022.7 1022.7 0.0
02/02:00am 10.7 7.9 10.1 96 0.3 NW 15 19 8 10 1022.6 1022.6 0.0
02/01:50am 10.7 7.5 9.9 95 0.4 NW 17 22 9 12 1022.6 1022.6 0.0
02/01:32am 11.1 6.1 9.4 89 0.9 NW 26 37 14 20 1022.6 1022.6 0.0
02/01:30am 11.3 6.2 9.2 87 1.0 NW 26 37 14 20 1022.6 1022.6 0.0
02/01:00am 11.4 7.0 9.1 86 1.1 NW 22 30 12 16 1022.5 1022.5 0.0
02/12:30am 11.4 8.0 9.0 85 1.2 NW 17 32 9 17 1022.6 1022.6 0.0
02/12:00am 11.5 7.6 8.7 83 1.4 NW 19 24 10 13 1022.7 1022.7 0.0
 
Date/Time
EST
Temp
°C
App
Temp
°C
Dew
Point
°C
Rel
Hum
%
Delta-T
°C
Wind Press
QNH
hPa
Press
MSL
hPa
Rain since
9am
mm
Dir  Spd
km/h
Gust
km/h
Spd
kts
Gust
kts
01/11:30pm 11.0 7.8 8.4 84 1.3 NW 15 17 8 9 1022.8 1022.8 0.0
01/11:00pm 10.7 7.5 8.6 87 1.0 NNW 15 19 8 10 1022.6 1022.6 0.0
01/10:30pm 11.0 7.5 8.6 85 1.2 NW 17 22 9 12 1022.5 1022.5 0.0
01/10:00pm 9.8 6.5 8.2 90 0.8 NNW 15 17 8 9 1022.6 1022.6 0.0
01/09:30pm 9.8 6.2 8.4 91 0.7 NW 17 20 9 11 1022.5 1022.5 0.0
01/09:00pm 9.1 6.1 7.5 90 0.8 NNW 13 17 7 9 1022.5 1022.5 0.0
01/08:30pm 9.2 6.5 7.5 89 0.8 NNW 11 13 6 7 1022.2 1022.2 0.0
01/08:00pm 10.3 7.0 8.2 87 1.0 NW 15 20 8 11 1022.3 1022.3 0.0
01/07:30pm 10.2 7.4 8.6 90 0.8 NNW 13 17 7 9 1022.4 1022.4 0.0
01/07:00pm 10.6 7.8 8.4 86 1.1 NW 13 17 7 9 1022.2 1022.2 0.0
01/06:30pm 11.3 7.4 8.7 84 1.3 WNW 19 24 10 13 1022.0 1022.0 0.0
01/06:00pm 11.5 9.2 8.9 84 1.3 WNW 11 17 6 9 1021.8 1021.8 0.0
01/05:30pm 11.6 8.0 8.3 80 1.6 WNW 17 20 9 11 1021.4 1021.4 0.0
01/05:00pm 12.0 8.7 8.1 77 1.9 WNW 15 22 8 12 1021.2 1021.2 0.0
01/04:30pm 12.2 8.0 8.3 77 1.9 WNW 20 32 11 17 1021.0 1021.0 0.0
01/04:00pm 11.7 8.2 8.6 81 1.5 WNW 17 24 9 13 1020.7 1020.7 0.0
01/03:30pm 12.3 7.2 7.8 74 2.2 WNW 24 33 13 18 1020.5 1020.5 0.0
01/03:00pm 12.0 8.2 9.0 82 1.5 NW 19 24 10 13 1020.4 1020.4 0.0
01/02:41pm 11.8 6.0 7.9 77 1.9 WNW 28 41 15 22 1020.3 1020.3 0.0
01/02:30pm 12.1 8.5 8.2 77 1.9 WNW 17 22 9 12 1020.4 1020.4 0.0
01/02:00pm 11.7 7.6 8.7 82 1.5 WNW 20 26 11 14 1020.5 1020.5 0.0
01/01:30pm 12.3 6.9 7.8 74 2.2 WNW 26 32 14 17 1020.3 1020.3 0.0
01/01:00pm 12.3 6.7 7.2 71 2.5 W 26 35 14 19 1020.3 1020.3 0.0
01/12:30pm 12.6 7.5 6.0 64 3.1 W 22 32 12 17 1020.4 1020.4 0.0
01/12:00pm 12.7 8.2 7.0 68 2.7 W 20 30 11 16 1020.5 1020.5 0.0
01/11:30am 11.8 7.1 6.1 68 2.7 W 20 30 11 16 1020.6 1020.6 0.0
01/11:00am 11.7 6.4 6.8 72 2.3 W 24 33 13 18 1020.6 1020.6 0.0
01/10:30am 11.3 6.6 7.6 78 1.8 W 22 32 12 17 1020.4 1020.4 0.0
01/10:00am 10.7 6.8 8.5 86 1.1 W 19 24 10 13 1020.2 1020.2 0.0
01/09:30am 9.5 6.7 8.6 94 0.4 W 13 15 7 8 1019.6 1019.6 0.0
01/09:00am 9.2 5.1 8.6 96 0.3 W 20 30 11 16 1019.4 1019.4 4.2
01/08:30am 8.9 5.4 8.6 98 0.1 W 17 20 9 11 1018.8 1018.8 4.2
01/08:00am 8.6 5.0 8.3 98 0.1 W 17 22 9 12 1017.9 1017.9 4.2
01/07:30am 8.7 3.8 8.4 98 0.1 W 24 30 13 16 1017.5 1017.5 4.2
01/07:00am 8.7 3.4 8.3 97 0.2 W 26 35 14 19 1017.1 1017.1 4.2
01/06:30am 8.4 3.0 8.0 97 0.2 W 26 32 14 17 1016.2 1016.2 4.2
01/06:00am 8.1 3.0 7.8 98 0.1 WNW 24 28 13 15 1015.7 1015.7 4.2
01/05:30am 7.5 3.1 7.2 98 0.1 WNW 20 26 11 14 1015.2 1015.2 4.2
01/05:00am 7.6 3.2 7.3 98 0.1 W 20 24 11 13 1014.8 1014.8 4.2
01/04:30am 7.7 3.3 7.4 98 0.1 W 20 26 11 14 1014.1 1014.1 4.2
01/04:00am 8.2 3.9 7.9 98 0.1 W 20 26 11 14 1013.7 1013.7 4.2
01/03:30am 8.3 3.7 8.2 99 0.0 W 22 30 12 16 1013.4 1013.4 4.2
01/03:00am 8.0 2.9 7.7 98 0.1 W 24 28 13 15 1012.8 1012.8 4.2
01/02:30am 8.0 2.8 7.4 96 0.3 W 24 32 13 17 1012.4 1012.4 4.0
01/02:00am 7.4 3.4 6.8 96 0.3 W 17 20 9 11 1011.8 1011.8 4.0
01/01:30am 7.6 3.3 6.9 95 0.3 W 19 26 10 14 1011.2 1011.2 4.0
01/01:00am 7.3 2.7 6.7 96 0.3 W 20 28 11 15 1010.6 1010.6 4.0
01/12:30am 6.4 2.8 4.9 90 0.7 W 13 17 7 9 1009.7 1009.7 4.0
01/12:00am 7.7 5.0 5.8 88 0.9 W 9 13 5 7 1009.4 1009.4 4.0
 
Date/Time
EST
Temp
°C
App
Temp
°C
Dew
Point
°C
Rel
Hum
%
Delta-T
°C
Wind Press
QNH
hPa
Press
MSL
hPa
Rain since
9am
mm
Dir  Spd
km/h
Gust
km/h
Spd
kts
Gust
kts
30/11:30pm 7.7 5.9 5.5 86 1.0 W 4 9 2 5 1009.1 1009.1 4.0
30/11:00pm 7.9 3.5 4.8 81 1.4 NW 17 30 9 16 1008.6 1008.6 4.0
30/10:30pm 7.7 2.3 4.5 80 1.4 NNW 22 32 12 17 1008.3 1008.3 4.0
30/10:00pm 7.6 2.2 4.7 82 1.3 NNW 22 30 12 16 1008.1 1008.1 4.0
30/09:30pm 7.7 1.6 4.7 81 1.3 NW 26 35 14 19 1007.6 1007.6 4.0
30/09:00pm 8.3 2.4 3.9 74 1.9 NW 24 33 13 18 1007.6 1007.6 4.0
30/08:30pm 7.7 2.2 4.1 78 1.6 NNW 22 30 12 16 1007.4 1007.4 4.0
30/08:00pm 8.2 2.0 4.2 76 1.7 NW 26 32 14 17 1007.2 1007.2 4.0
30/07:30pm 8.0 3.1 4.9 81 1.4 NW 20 24 11 13 1007.2 1007.2 4.0
30/07:00pm 8.2 3.3 5.1 81 1.4 WNW 20 26 11 14 1007.2 1007.2 4.0
30/06:30pm 8.3 5.9 5.1 80 1.4 NW 7 15 4 8 1007.2 1007.2 4.0
30/06:00pm 8.4 2.8 5.3 81 1.4 NW 24 32 13 17 1006.3 1006.3 4.0
30/05:30pm 8.3 3.5 5.6 83 1.2 NNW 20 26 11 14 1005.9 1005.9 4.0
30/05:00pm 8.2 4.4 6.0 86 1.0 NNW 15 19 8 10 1006.1 1006.1 4.0
30/04:30pm 8.1 3.4 6.2 88 0.9 NNW 20 28 11 15 1006.2 1006.2 3.8
30/04:01pm 8.4 2.6 6.2 86 1.0 NW 26 33 14 18 1006.5 1006.5 3.6
30/04:00pm 8.5 2.8 6.5 87 0.9 NW 26 39 14 21 1006.5 1006.5 3.6
30/03:43pm 9.5 3.7 7.9 90 0.8 NW 28 48 15 26 1006.7 1006.7 3.0
30/03:35pm 9.9 5.6 7.8 87 1.0 NNW 20 35 11 19 1006.2 1006.2 1.6
30/03:30pm 9.9 6.1 7.7 86 1.1 NNW 17 22 9 12 1006.0 1006.0 1.0
30/03:00pm 11.2 5.0 6.1 71 2.4 N 28 39 15 21 1005.3 1005.3 0.0
30/02:30pm 12.1 6.0 6.8 70 2.5 N 28 35 15 19 1005.5 1005.5 0.0
30/02:00pm 13.0 5.2 6.8 66 3.0 N 37 50 20 27 1005.5 1005.5 0.0
30/01:30pm 11.5 4.4 6.2 70 2.5 N 33 46 18 25 1006.1 1006.1 0.0
30/01:00pm 11.5 4.0 6.2 70 2.5 N 35 46 19 25 1006.7 1006.7 0.0
30/12:30pm 11.4 3.1 6.3 71 2.4 N 39 54 21 29 1006.8 1006.8 0.0
30/12:12pm 11.7 3.7 5.8 67 2.7 N 37 57 20 31 1007.3 1007.3 0.0
30/12:00pm 11.8 3.8 5.9 67 2.8 N 37 46 20 25 1007.5 1007.5 0.0
30/11:30am 11.9 3.6 6.0 67 2.8 N 39 50 21 27 1008.1 1008.1 0.0
30/11:11am 12.5 4.9 5.9 64 3.1 N 35 54 19 29 1008.2 1008.2 0.0
30/11:00am 11.9 3.6 6.0 67 2.8 N 39 56 21 30 1008.4 1008.4 0.0
30/10:46am 11.6 4.4 5.7 67 2.7 N 33 52 18 28 1008.8 1008.8 0.0
30/10:30am 11.5 4.3 5.8 68 2.7 N 33 50 18 27 1009.2 1009.2 0.0
30/10:28am 11.5 4.4 5.6 67 2.7 N 32 50 17 27 1009.1 1009.1 0.0
30/10:00am 10.6 5.5 5.8 72 2.2 NNE 22 30 12 16 1009.8 1009.8 0.0
30/09:30am 10.4 3.7 5.4 71 2.3 NNE 30 39 16 21 1009.7 1009.7 0.0
30/09:00am 10.3 3.5 5.3 71 2.3 NNE 30 43 16 23 1009.8 1009.8 0.0
30/08:30am 10.2 3.8 5.2 71 2.3 NNE 28 35 15 19 1010.2 1010.2 0.0
30/08:00am 10.2 4.6 5.4 72 2.2 N 24 35 13 19 1010.4 1010.4 0.0
30/07:30am 10.0 5.4 5.4 73 2.1 N 19 32 10 17 1010.7 1010.7 0.0
30/07:00am 9.6 4.8 5.6 76 1.8 N 20 30 11 16 1011.0 1011.0 0.0
30/06:30am 10.3 1.8 5.1 70 2.4 N 39 56 21 30 1010.2 1010.2 0.0
30/06:00am 10.3 1.4 5.1 70 2.4 NNE 41 59 22 32 1010.2 1010.2 0.0
30/05:49am 10.2 3.0 5.2 71 2.3 NNE 32 50 17 27 1010.6 1010.6 0.0
30/05:30am 10.0 1.5 5.2 72 2.2 NNE 39 50 21 27 1011.0 1011.0 0.0
30/05:00am 10.5 2.3 4.9 68 2.5 NNE 37 48 20 26 1011.7 1011.7 0.0
30/04:30am 10.5 3.3 4.9 68 2.5 N 32 41 17 22 1012.7 1012.7 0.0
30/04:00am 10.4 3.6 5.0 69 2.4 N 30 39 16 21 1013.2 1013.2 0.0
30/03:30am 10.7 2.9 4.8 67 2.7 NNE 35 50 19 27 1013.7 1013.7 0.0
30/03:00am 10.6 3.3 4.7 67 2.7 NNE 32 44 17 24 1014.4 1014.4 0.0
30/02:30am 10.8 4.3 4.7 66 2.8 NNE 28 46 15 25 1014.8 1014.8 0.0
30/02:29am 10.8 4.3 4.7 66 2.8 NNE 28 46 15 25 1014.8 1014.8 0.0
30/02:00am 11.0 3.8 4.9 66 2.8 NNE 32 41 17 22 1015.5 1015.5 0.0
30/01:30am 11.1 3.3 4.8 65 2.9 NNE 35 44 19 24 1016.0 1016.0 0.0
30/01:00am 10.9 4.8 4.8 66 2.8 N 26 35 14 19 1016.3 1016.3 0.0
30/12:30am 10.8 4.6 4.3 64 2.9 N 26 35 14 19 1017.1 1017.1 0.0
30/12:00am 11.1 5.3 4.6 64 2.9 N 24 35 13 19 1017.9 1017.9 0.0
 
Date/Time
EST
Temp
°C
App
Temp
°C
Dew
Point
°C
Rel
Hum
%
Delta-T
°C
Wind Press
QNH
hPa
Press
MSL
hPa
Rain since
9am
mm
Dir  Spd
km/h
Gust
km/h
Spd
kts
Gust
kts
29/11:30pm 10.5 7.0 5.5 71 2.3 N 13 15 7 8 1018.5 1018.5 0.0
29/11:00pm 10.8 7.0 5.6 70 2.4 N 15 19 8 10 1018.6 1018.6 0.0
29/10:30pm 10.6 7.5 5.4 70 2.4 NNE 11 15 6 8 1018.7 1018.7 0.0
29/10:00pm 10.5 7.0 5.5 71 2.3 NNE 13 19 7 10 1018.8 1018.8 0.0
29/09:30pm 9.5 6.2 6.4 81 1.4 N 13 15 7 8 1018.8 1018.8 0.0
29/09:00pm 7.4 3.4 4.9 84 1.1 N 15 17 8 9 1019.1 1019.1 0.0
29/08:30pm 8.2 5.0 5.0 80 1.4 N 11 17 6 9 1019.1 1019.1 0.0
29/08:00pm 8.5 5.2 4.5 76 1.8 NNE 11 17 6 9 1019.4 1019.4 0.0
29/07:30pm 9.0 5.0 4.8 75 1.9 N 15 17 8 9 1019.6 1019.6 0.0
29/07:00pm 8.4 5.0 4.0 74 1.9 N 11 15 6 8 1020.2 1020.2 0.0
29/06:30pm 9.7 5.6 4.3 69 2.4 N 15 19 8 10 1020.4 1020.4 0.0
29/06:00pm 9.7 4.6 4.1 68 2.5 N 20 24 11 13 1020.5 1020.5 0.0
29/05:30pm 10.4 4.9 3.9 64 2.9 N 22 26 12 14 1020.9 1020.9 0.0
29/05:00pm 11.7 6.1 3.7 58 3.5 N 22 30 12 16 1021.0 1021.0 0.0
29/04:30pm 12.9 7.1 4.3 56 3.9 N 24 30 13 16 1021.2 1021.2 0.0
29/04:00pm 13.9 8.1 4.5 53 4.3 N 24 32 13 17 1021.7 1021.7 0.0
29/03:30pm 14.6 8.6 5.1 53 4.5 NNW 26 35 14 19 1021.9 1021.9 0.0
29/03:00pm 15.3 9.3 5.2 51 4.8 NNW 26 33 14 18 1021.8 1021.8 0.0
29/02:30pm 14.9 7.7 5.1 52 4.6 NNW 32 43 17 23 1022.1 1022.1 0.0
29/02:00pm 15.4 8.9 6.7 56 4.2 NNW 30 35 16 19 1022.7 1022.7 0.0
29/01:30pm 15.2 9.5 6.5 56 4.2 NNW 26 32 14 17 1023.1 1023.1 0.0
29/01:00pm 15.3 10.9 7.3 59 3.9 NNW 20 26 11 14 1023.6 1023.6 0.0
29/12:30pm 14.7 9.3 6.3 57 4.0 NNW 24 33 13 18 1024.2 1024.2 0.0
29/12:00pm 15.2 9.6 7.0 58 4.0 NNW 26 35 14 19 1024.7 1024.7 0.0
29/11:30am 15.2 10.2 8.0 62 3.6 NNW 24 32 13 17 1025.4 1025.4 0.0
29/11:00am 14.5 10.6 8.7 68 2.9 N 19 26 10 14 1026.0 1026.0 0.0
29/10:30am 13.8 9.8 8.4 70 2.7 N 19 24 10 13 1026.2 1026.2 0.0
29/10:00am 12.9 8.9 8.4 74 2.2 NNE 19 24 10 13 1026.3 1026.3 0.0
29/09:30am 12.0 8.0 8.3 78 1.8 N 19 24 10 13 1026.2 1026.2 0.0
29/09:00am 10.8 7.0 7.7 81 1.5 N 17 20 9 11 1026.2 1026.2 0.0
29/08:30am 10.0 5.8 7.3 83 1.3 N 19 22 10 12 1026.0 1026.0 0.0

Latest Capital City Observations: Canberra | Sydney | Melbourne | Brisbane | Adelaide | Perth | Hobart | Darwin

Other Formats:

Comma delimited format used in spreadsheet applications
http://www.bom.gov.au/fwo/IDV60901/IDV60901.94854.axf

JavaScript Object Notation format (JSON) in row-major order
http://www.bom.gov.au/fwo/IDV60901/IDV60901.94854.json